< < Back
Terminal Aerodrome Forecast


Current Version              Previous Versions:   1  2  3  4  5  6  7  8  9  

Terminal Aerodrome Forecast

518
FTUS42 KILM 222300
TAFFLO
TAF
KFLO 222339Z 2300/2324 04005KT 6SM -RA SCT040 BKN100
     FM230700 04007KT 6SM -RA BKN040
     FM231200 05010KT 4SM BR VCSH BKN012 BKN040 OVC120=

Latest METAR

500
SAUS70 KWBC 230200 RRN
MTRFLO
METAR KFLO 230153Z AUTO 01006KT 10SM FEW031 19/17 A3010 RMK AO2 RAE38
SLP190 P0000 T01940172


USA.gov is the U.S. government's official web portal to all federal, state and local government web resources and services.